createdAt,value
2023-02-21T00:01:07.801Z,5.07
2023-02-21T00:02:29.711Z,4.90
2023-02-21T00:03:52.238Z,5.15
2023-02-21T00:05:13.715Z,5.20
2023-02-21T00:06:34.523Z,4.97
2023-02-21T00:07:58.396Z,5.28
2023-02-21T00:09:19.315Z,5.25
2023-02-21T00:10:41.027Z,5.20
2023-02-21T00:12:02.657Z,5.18
2023-02-21T00:13:23.875Z,5.60
2023-02-21T00:14:45.062Z,5.38
2023-02-21T00:16:06.297Z,5.75
2023-02-21T00:17:27.091Z,5.45
2023-02-21T00:20:18.119Z,4.97
2023-02-21T00:21:40.373Z,5.40
2023-02-21T00:23:01.339Z,5.43
2023-02-21T00:24:22.543Z,5.75
2023-02-21T00:25:43.237Z,5.70
2023-02-21T00:28:24.945Z,6.10
2023-02-21T00:31:07.538Z,5.55
2023-02-21T00:32:28.964Z,5.22
2023-02-21T00:33:49.834Z,5.70
2023-02-21T00:35:10.889Z,5.70
2023-02-21T00:38:21.386Z,5.82
2023-02-21T00:39:42.494Z,6.03
2023-02-21T00:41:04.069Z,6.13
2023-02-21T00:42:24.902Z,6.53
2023-02-21T00:43:51.244Z,6.18
2023-02-21T00:45:12.480Z,5.82
2023-02-21T00:46:33.900Z,6.03
2023-02-21T00:47:55.232Z,6.25
2023-02-21T00:49:16.314Z,5.93
2023-02-21T00:51:58.429Z,6.00
2023-02-21T00:53:19.248Z,6.00
2023-02-21T00:54:40.044Z,6.00
2023-02-21T00:56:00.874Z,5.40
2023-02-21T00:58:42.722Z,4.95
2023-02-21T01:00:03.759Z,5.60
2023-02-21T01:01:24.969Z,5.50
2023-02-21T01:02:45.801Z,5.88
2023-02-21T01:04:07.101Z,6.07
2023-02-21T01:05:28.023Z,5.50
2023-02-21T01:06:50.278Z,6.22
2023-02-21T01:08:11.215Z,5.93
2023-02-21T01:09:35.324Z,5.95
2023-02-21T01:10:55.931Z,6.47
2023-02-21T01:12:17.559Z,6.20
2023-02-21T01:13:38.688Z,6.53
2023-02-21T01:14:59.874Z,6.03
2023-02-21T01:16:20.813Z,5.55
2023-02-21T01:19:02.736Z,6.53
2023-02-21T01:20:25.218Z,5.18
2023-02-21T01:21:46.296Z,6.35
2023-02-21T01:23:07.426Z,5.45
2023-02-21T01:25:52.364Z,5.30
2023-02-21T01:27:13.836Z,5.10
2023-02-21T01:28:35.046Z,5.63
2023-02-21T01:29:57.441Z,5.82
2023-02-21T01:31:19.250Z,5.80
2023-02-21T01:32:40.178Z,6.47
2023-02-21T01:34:01.202Z,5.57
2023-02-21T01:35:22.949Z,5.82
2023-02-21T01:36:45.912Z,5.20
2023-02-21T01:38:07.981Z,5.53
2023-02-21T01:40:50.011Z,5.40
2023-02-21T01:43:41.279Z,6.00
2023-02-21T01:45:07.123Z,5.30
2023-02-21T01:46:32.823Z,5.30
2023-02-21T01:47:53.617Z,5.50
2023-02-21T01:49:15.255Z,5.90
2023-02-21T01:50:45.476Z,5.38
2023-02-21T01:52:06.876Z,6.07
2023-02-21T01:53:35.430Z,5.38
2023-02-21T01:56:23.275Z,5.10
2023-02-21T01:57:44.512Z,5.75
2023-02-21T01:59:08.931Z,5.93
2023-02-21T02:00:33.264Z,6.28
2023-02-21T02:02:20.054Z,5.60
2023-02-21T02:03:40.993Z,5.68
2023-02-21T02:05:03.714Z,5.47
2023-02-21T02:06:29.472Z,6.05
2023-02-21T02:07:51.445Z,6.00
2023-02-21T02:09:16.166Z,5.32
2023-02-21T02:10:37.684Z,6.40
2023-02-21T02:13:18.781Z,5.70
2023-02-21T02:14:44.764Z,5.45
2023-02-21T02:16:06.224Z,6.22
2023-02-21T02:17:30.082Z,5.28
2023-02-21T02:18:40.945Z,6.35
2023-02-21T02:20:19.945Z,5.95
2023-02-21T02:21:24.736Z,6.20
2023-02-21T02:23:04.068Z,6.25
2023-02-21T02:24:14.809Z,5.70
2023-02-21T02:25:24.046Z,6.32
2023-02-21T02:26:44.690Z,5.90
2023-02-21T02:29:10.016Z,5.60
2023-02-21T02:30:12.267Z,5.85
2023-02-21T02:31:36.342Z,5.90
2023-02-21T02:33:10.523Z,6.30
2023-02-21T02:35:00.632Z,5.70
2023-02-21T02:36:08.488Z,6.18
2023-02-21T02:37:35.520Z,5.80
2023-02-21T02:38:47.268Z,5.97
2023-02-21T02:40:18.296Z,5.53
2023-02-21T02:43:00.865Z,6.72
2023-02-21T02:44:18.356Z,6.22
2023-02-21T02:45:33.788Z,6.80
2023-02-21T02:46:39.705Z,6.43
2023-02-21T02:47:45.404Z,6.93
2023-02-21T02:48:54.199Z,6.50
2023-02-21T02:49:59.220Z,6.68
2023-02-21T02:51:08.080Z,6.80
2023-02-21T02:52:10.461Z,6.72
2023-02-21T02:53:17.175Z,6.93
2023-02-21T02:54:19.756Z,6.25
2023-02-21T02:55:32.228Z,7.32
2023-02-21T02:56:36.899Z,6.93
2023-02-21T02:57:42.120Z,7.90
2023-02-21T02:58:51.255Z,6.95
2023-02-21T02:59:55.044Z,6.80
2023-02-21T03:01:03.865Z,7.00
2023-02-21T03:02:29.949Z,6.55
2023-02-21T03:03:35.900Z,7.13
2023-02-21T03:05:01.990Z,8.38
2023-02-21T03:06:24.557Z,7.07
2023-02-21T03:07:42.256Z,6.70
2023-02-21T03:08:58.961Z,6.65
2023-02-21T03:10:13.960Z,6.80
2023-02-21T03:11:20.216Z,6.93
2023-02-21T03:12:38.998Z,7.72
2023-02-21T03:14:01.631Z,7.00
2023-02-21T03:15:48.631Z,7.55
2023-02-21T03:16:55.742Z,8.20
2023-02-21T03:18:08.542Z,8.00
2023-02-21T03:19:19.156Z,6.65
2023-02-21T03:21:32.352Z,7.25
2023-02-21T03:22:35.560Z,7.47
2023-02-21T03:23:40.381Z,7.03
2023-02-21T03:24:47.427Z,7.30
2023-02-21T03:25:52.131Z,7.95
2023-02-21T03:26:59.775Z,7.75
2023-02-21T03:28:16.815Z,7.25
2023-02-21T03:29:21.643Z,7.07
2023-02-21T03:30:25.018Z,7.55
2023-02-21T03:31:35.904Z,7.72
2023-02-21T03:32:43.302Z,8.10
2023-02-21T03:33:45.541Z,7.70
2023-02-21T03:34:47.856Z,7.82
2023-02-21T03:35:53.422Z,7.90
2023-02-21T03:36:55.902Z,7.13
2023-02-21T03:37:58.730Z,8.55
2023-02-21T03:39:02.856Z,7.60
2023-02-21T03:40:13.140Z,8.30
2023-02-21T03:41:16.323Z,7.60
2023-02-21T03:42:18.769Z,8.52
2023-02-21T03:43:21.631Z,8.40
2023-02-21T03:44:28.196Z,8.60
2023-02-21T03:45:30.422Z,8.68
2023-02-21T03:46:43.084Z,7.95
2023-02-21T03:47:45.543Z,7.43
2023-02-21T03:48:47.987Z,7.88
2023-02-21T03:49:56.436Z,9.02
2023-02-21T03:50:59.159Z,8.48
2023-02-21T03:52:06.099Z,8.57
2023-02-21T03:53:10.094Z,8.50
2023-02-21T03:54:14.229Z,8.20
2023-02-21T03:55:22.603Z,7.97
2023-02-21T03:56:33.411Z,8.68
2023-02-21T03:57:58.149Z,8.15
2023-02-21T03:59:00.758Z,8.80
2023-02-21T04:00:04.901Z,8.32
2023-02-21T04:01:17.573Z,8.98
2023-02-21T04:02:20.471Z,8.55
2023-02-21T04:03:23.730Z,8.57
2023-02-21T04:04:30.937Z,8.45
2023-02-21T04:05:53.257Z,8.73
2023-02-21T04:06:56.218Z,8.45
2023-02-21T04:07:59.536Z,8.75
2023-02-21T04:09:02.792Z,7.72
2023-02-21T04:10:06.692Z,8.38
2023-02-21T04:11:24.201Z,8.80
2023-02-21T04:12:28.314Z,9.18
2023-02-21T04:13:30.578Z,8.68
2023-02-21T04:14:33.301Z,8.40
2023-02-21T04:15:36.002Z,8.80
2023-02-21T04:16:38.940Z,9.07
2023-02-21T04:17:41.235Z,9.15
2023-02-21T04:18:44.562Z,8.63
2023-02-21T04:19:48.742Z,8.75
2023-02-21T04:20:51.207Z,8.95
2023-02-21T04:21:54.837Z,9.52
2023-02-21T04:23:03.205Z,9.32
2023-02-21T04:24:06.439Z,8.15
2023-02-21T04:25:09.652Z,8.68
2023-02-21T04:26:17.688Z,8.60
2023-02-21T04:27:25.040Z,9.35
2023-02-21T04:28:30.864Z,9.20
2023-02-21T04:29:33.315Z,9.38
2023-02-21T04:30:35.731Z,9.57
2023-02-21T04:31:38.394Z,9.50
2023-02-21T04:32:45.554Z,9.23
2023-02-21T04:33:54.936Z,9.13
2023-02-21T04:35:05.622Z,9.68
2023-02-21T04:36:08.675Z,9.30
2023-02-21T04:37:15.436Z,9.25
2023-02-21T04:38:18.460Z,10.30
2023-02-21T04:39:20.673Z,10.02
2023-02-21T04:40:24.381Z,9.45
2023-02-21T04:41:26.825Z,9.00
2023-02-21T04:42:29.288Z,9.63
2023-02-21T04:43:31.837Z,8.95
2023-02-21T04:44:34.280Z,9.43
2023-02-21T04:45:36.696Z,9.63
2023-02-21T04:46:39.261Z,9.18
2023-02-21T04:47:42.948Z,9.77
2023-02-21T04:48:48.088Z,9.63
2023-02-21T04:49:52.477Z,9.93
2023-02-21T04:50:57.293Z,9.77
2023-02-21T04:52:01.440Z,9.90
2023-02-21T04:53:03.773Z,11.23
2023-02-21T04:54:07.769Z,9.85
2023-02-21T04:55:10.309Z,10.10
2023-02-21T04:56:13.024Z,10.23
2023-02-21T04:57:15.894Z,10.27
2023-02-21T04:58:18.519Z,10.20
2023-02-21T04:59:20.824Z,10.55
2023-02-21T05:00:23.796Z,11.05
2023-02-21T05:01:31.638Z,10.57
2023-02-21T05:02:34.543Z,10.98
2023-02-21T05:03:36.715Z,10.15
2023-02-21T05:04:39.433Z,10.35
2023-02-21T05:05:41.607Z,10.75
2023-02-21T05:06:44.021Z,10.00
2023-02-21T05:07:46.458Z,10.15
2023-02-21T05:08:49.183Z,10.77
2023-02-21T05:09:52.059Z,10.63
2023-02-21T05:10:55.057Z,10.00
2023-02-21T05:11:57.521Z,9.90
2023-02-21T05:12:59.813Z,9.95
2023-02-21T05:14:02.073Z,9.88
2023-02-21T05:15:05.055Z,10.57
2023-02-21T05:16:07.773Z,10.05
2023-02-21T05:17:10.484Z,10.85
2023-02-21T05:18:12.758Z,10.45
2023-02-21T05:19:27.524Z,9.32
2023-02-21T05:20:29.851Z,9.82
2023-02-21T05:21:36.026Z,10.07
2023-02-21T05:22:42.862Z,10.55
2023-02-21T05:23:55.653Z,10.45
2023-02-21T05:24:58.070Z,11.10
2023-02-21T05:26:18.732Z,10.52
2023-02-21T05:27:22.787Z,10.13
2023-02-21T05:28:24.965Z,10.55
2023-02-21T05:29:27.367Z,10.60
2023-02-21T05:30:29.827Z,10.90
2023-02-21T05:31:32.126Z,10.55
2023-02-21T05:32:34.361Z,10.25
2023-02-21T05:33:36.855Z,9.60
2023-02-21T05:34:41.307Z,9.95
2023-02-21T05:35:43.782Z,10.40
2023-02-21T05:36:46.412Z,10.57
2023-02-21T05:37:48.993Z,10.07
2023-02-21T05:38:53.786Z,9.55
2023-02-21T05:39:56.067Z,10.57
2023-02-21T05:40:58.304Z,10.07
2023-02-21T05:42:00.706Z,9.52
2023-02-21T05:43:03.184Z,10.70
2023-02-21T05:44:06.060Z,9.77
2023-02-21T05:45:09.654Z,9.90
2023-02-21T05:46:24.249Z,10.63
2023-02-21T05:47:26.605Z,9.45
2023-02-21T05:48:28.786Z,9.27
2023-02-21T05:49:30.981Z,10.73
2023-02-21T05:50:33.236Z,10.25
2023-02-21T05:51:41.349Z,10.13
2023-02-21T05:52:43.579Z,10.10
2023-02-21T05:53:46.307Z,10.25
2023-02-21T05:54:48.468Z,9.57
2023-02-21T05:55:50.625Z,9.57
2023-02-21T05:56:53.309Z,10.55
2023-02-21T05:57:55.915Z,9.95
2023-02-21T05:58:58.081Z,10.63
2023-02-21T06:00:00.453Z,9.70
2023-02-21T06:01:03.119Z,9.75
2023-02-21T06:02:05.337Z,10.57
2023-02-21T06:03:08.831Z,10.57
2023-02-21T06:04:11.104Z,10.98
2023-02-21T06:05:13.579Z,10.13
2023-02-21T06:06:16.636Z,10.35
2023-02-21T06:07:18.849Z,9.88
2023-02-21T06:08:21.086Z,10.98
2023-02-21T06:09:23.355Z,10.05
2023-02-21T06:10:25.521Z,10.07
2023-02-21T06:11:30.653Z,11.57
2023-02-21T06:12:33.083Z,10.13
2023-02-21T06:13:35.452Z,10.93
2023-02-21T06:14:37.657Z,10.15
2023-02-21T06:15:40.229Z,10.63
2023-02-21T06:16:42.631Z,11.18
2023-02-21T06:17:44.923Z,10.90
2023-02-21T06:18:57.316Z,11.18
2023-02-21T06:19:59.623Z,11.38
2023-02-21T06:21:01.804Z,10.15
2023-02-21T06:22:03.996Z,11.23
2023-02-21T06:23:06.420Z,10.95
2023-02-21T06:24:09.945Z,11.65
2023-02-21T06:25:12.198Z,11.32
2023-02-21T06:26:15.531Z,11.40
2023-02-21T06:27:17.770Z,11.30
2023-02-21T06:28:20.006Z,11.65
2023-02-21T06:29:22.213Z,11.45
2023-02-21T06:30:24.719Z,11.93
2023-02-21T06:31:27.577Z,10.68
2023-02-21T06:32:29.809Z,11.88
2023-02-21T06:33:32.501Z,11.77
2023-02-21T06:34:34.701Z,11.30
2023-02-21T06:35:37.080Z,11.90
2023-02-21T06:36:39.739Z,12.15
2023-02-21T06:37:42.643Z,11.95
2023-02-21T06:38:46.973Z,11.18
2023-02-21T06:39:49.211Z,10.77
2023-02-21T06:40:51.690Z,10.82
2023-02-21T06:41:54.129Z,11.43
2023-02-21T06:42:56.318Z,10.90
2023-02-21T06:43:59.849Z,12.70
2023-02-21T06:45:02.235Z,12.05
2023-02-21T06:46:04.918Z,12.00
2023-02-21T06:47:07.290Z,11.90
2023-02-21T06:48:15.029Z,10.70
2023-02-21T06:49:17.469Z,11.57
2023-02-21T06:50:19.734Z,12.77
2023-02-21T06:51:29.116Z,11.43
2023-02-21T06:52:32.739Z,11.98
2023-02-21T06:53:35.130Z,12.00
2023-02-21T06:54:37.675Z,12.65
2023-02-21T06:55:39.841Z,11.48
2023-02-21T06:56:42.253Z,11.80
2023-02-21T06:57:44.430Z,11.85
2023-02-21T06:58:46.615Z,11.98
2023-02-21T06:59:49.231Z,10.93
2023-02-21T07:00:51.402Z,12.45
2023-02-21T07:01:53.880Z,12.30
2023-02-21T07:02:56.095Z,11.93
2023-02-21T07:03:59.215Z,12.48
2023-02-21T07:05:01.404Z,11.77
2023-02-21T07:06:03.717Z,11.45
2023-02-21T07:07:06.071Z,12.15
2023-02-21T07:08:08.293Z,12.52
2023-02-21T07:09:10.497Z,11.93
2023-02-21T07:10:13.263Z,11.38
2023-02-21T07:11:16.744Z,12.50
2023-02-21T07:12:19.217Z,10.77
2023-02-21T07:13:22.557Z,11.23
2023-02-21T07:14:25.039Z,11.25
2023-02-21T07:15:27.402Z,10.63
2023-02-21T07:16:29.815Z,11.55
2023-02-21T07:17:32.064Z,11.35
2023-02-21T07:18:34.229Z,11.88
2023-02-21T07:19:36.817Z,11.18
2023-02-21T07:20:42.100Z,11.43
2023-02-21T07:21:44.589Z,10.68
2023-02-21T07:22:46.808Z,10.88
2023-02-21T07:23:49.392Z,10.95
2023-02-21T07:24:56.205Z,12.05
2023-02-21T07:25:58.365Z,10.25
2023-02-21T07:27:00.732Z,9.80
2023-02-21T07:28:04.334Z,11.48
2023-02-21T07:29:07.071Z,10.20
2023-02-21T07:30:12.033Z,10.82
2023-02-21T07:31:15.637Z,10.00
2023-02-21T07:32:19.327Z,10.90
2023-02-21T07:33:21.594Z,9.70
2023-02-21T07:34:24.095Z,10.32
2023-02-21T07:35:26.921Z,10.68
2023-02-21T07:36:29.196Z,10.18
2023-02-21T07:37:31.394Z,10.57
2023-02-21T07:38:33.656Z,10.75
2023-02-21T07:39:36.356Z,10.38
2023-02-21T07:40:38.576Z,10.20
2023-02-21T07:41:41.041Z,10.32
2023-02-21T07:42:44.955Z,10.40
2023-02-21T07:43:47.216Z,10.82
2023-02-21T07:44:49.491Z,10.65
2023-02-21T07:45:51.666Z,10.50
2023-02-21T07:46:56.808Z,10.02
2023-02-21T07:47:59.031Z,10.93
2023-02-21T07:49:01.265Z,10.10
2023-02-21T07:50:04.494Z,10.20
2023-02-21T07:51:08.071Z,9.95
2023-02-21T07:52:10.290Z,9.55
2023-02-21T07:53:14.133Z,10.27
2023-02-21T07:54:17.260Z,9.30
2023-02-21T07:55:19.444Z,9.75
2023-02-21T07:56:22.112Z,10.68
2023-02-21T07:57:24.337Z,9.60
2023-02-21T07:58:26.760Z,9.68
2023-02-21T07:59:29.065Z,9.80
2023-02-21T08:00:32.265Z,10.50
2023-02-21T08:01:34.522Z,9.82
2023-02-21T08:02:36.748Z,10.25
2023-02-21T08:03:40.819Z,9.75
2023-02-21T08:04:43.219Z,9.60
2023-02-21T08:05:47.078Z,9.93
2023-02-21T08:06:49.383Z,9.57
2023-02-21T08:07:52.396Z,9.77
2023-02-21T08:08:54.638Z,9.90
2023-02-21T08:09:57.083Z,10.50
2023-02-21T08:10:59.481Z,9.93
2023-02-21T08:12:02.436Z,9.48
2023-02-21T08:13:05.602Z,10.10
2023-02-21T08:14:07.825Z,10.00
2023-02-21T08:15:10.448Z,10.25
2023-02-21T08:16:12.938Z,9.85
2023-02-21T08:17:15.192Z,10.30
2023-02-21T08:18:24.061Z,10.77
2023-02-21T08:19:26.237Z,9.63
2023-02-21T08:20:28.610Z,9.50
2023-02-21T08:21:31.068Z,10.70
2023-02-21T08:22:33.322Z,10.50
2023-02-21T08:23:35.481Z,11.05
2023-02-21T08:24:37.908Z,10.73
2023-02-21T08:25:40.131Z,11.13
2023-02-21T08:26:45.715Z,10.35
2023-02-21T08:27:53.520Z,10.95
2023-02-21T08:28:55.761Z,10.45
2023-02-21T08:29:58.127Z,10.80
2023-02-21T08:31:00.822Z,11.48
2023-02-21T08:32:03.649Z,12.05
2023-02-21T08:33:05.978Z,11.25
2023-02-21T08:34:08.943Z,11.82
2023-02-21T08:35:15.270Z,10.73
2023-02-21T08:36:17.497Z,10.98
2023-02-21T08:37:20.232Z,11.00
2023-02-21T08:38:22.604Z,12.25
2023-02-21T08:39:24.859Z,11.82
2023-02-21T08:40:27.116Z,12.32
2023-02-21T08:41:42.662Z,12.32
2023-02-21T08:42:50.311Z,11.23
2023-02-21T08:43:52.894Z,11.85
2023-02-21T08:44:55.538Z,11.20
2023-02-21T08:45:57.851Z,12.23
2023-02-21T08:47:00.447Z,12.48
2023-02-21T08:48:03.395Z,13.15
2023-02-21T08:49:05.878Z,12.50
2023-02-21T08:50:08.284Z,12.57
2023-02-21T08:51:10.484Z,14.40
2023-02-21T08:52:13.785Z,13.95
2023-02-21T08:53:16.042Z,13.20
2023-02-21T08:54:19.349Z,11.85
2023-02-21T08:55:22.492Z,12.80
2023-02-21T08:56:25.568Z,12.75
2023-02-21T08:57:27.954Z,13.18
2023-02-21T08:58:30.128Z,14.10
2023-02-21T08:59:33.717Z,13.18
2023-02-21T09:00:36.157Z,11.93
2023-02-21T09:01:38.612Z,13.02
2023-02-21T09:02:41.255Z,13.13
2023-02-21T09:03:43.703Z,13.75
2023-02-21T09:04:48.332Z,13.35
2023-02-21T09:05:50.544Z,12.38
2023-02-21T09:06:53.106Z,13.00
2023-02-21T09:07:59.205Z,12.02
2023-02-21T09:09:01.689Z,11.95
2023-02-21T09:10:05.602Z,12.10
2023-02-21T09:11:08.357Z,11.75
2023-02-21T09:12:11.116Z,12.95
2023-02-21T09:13:13.378Z,12.15
2023-02-21T09:14:16.817Z,12.88
2023-02-21T09:15:19.619Z,11.82
2023-02-21T09:16:22.345Z,11.57
2023-02-21T09:17:24.833Z,11.82
2023-02-21T09:18:28.606Z,11.85
2023-02-21T09:19:30.826Z,10.93
2023-02-21T09:20:33.052Z,10.90
2023-02-21T09:21:35.816Z,10.00
2023-02-21T09:22:38.254Z,11.75
2023-02-21T09:23:40.486Z,10.77
2023-02-21T09:24:42.683Z,10.27
2023-02-21T09:25:44.883Z,11.30
2023-02-21T09:26:47.290Z,11.63
2023-02-21T09:27:49.765Z,10.98
2023-02-21T09:28:52.889Z,10.27
2023-02-21T09:29:56.526Z,10.50
2023-02-21T09:30:58.974Z,10.48
2023-02-21T09:32:01.993Z,11.32
2023-02-21T09:33:04.654Z,11.23
2023-02-21T09:34:06.891Z,11.07
2023-02-21T09:35:10.991Z,10.07
2023-02-21T09:36:13.204Z,10.63
2023-02-21T09:37:15.371Z,10.85
2023-02-21T09:38:17.623Z,10.27
2023-02-21T09:39:19.910Z,10.65
2023-02-21T09:40:37.287Z,10.80
2023-02-21T09:41:43.396Z,10.10
2023-02-21T09:42:46.701Z,10.35
2023-02-21T09:43:52.769Z,10.07
2023-02-21T09:44:54.990Z,10.73
2023-02-21T09:46:02.737Z,9.88
2023-02-21T09:47:07.581Z,9.93
2023-02-21T09:48:23.310Z,10.13
2023-02-21T09:49:28.144Z,9.45
2023-02-21T09:50:37.144Z,9.45
2023-02-21T09:51:42.240Z,9.18
2023-02-21T09:52:45.717Z,9.95
2023-02-21T09:53:49.197Z,10.38
2023-02-21T09:54:58.125Z,10.85
2023-02-21T09:56:07.853Z,10.80
2023-02-21T09:57:15.834Z,10.55
2023-02-21T09:58:20.593Z,10.63
2023-02-21T09:59:22.932Z,10.98
2023-02-21T10:00:37.595Z,10.93
2023-02-21T10:01:42.646Z,11.57
2023-02-21T10:02:59.814Z,11.98
2023-02-21T10:04:21.951Z,11.73
2023-02-21T10:05:46.806Z,11.13
2023-02-21T10:06:59.622Z,11.00
2023-02-21T10:08:11.777Z,11.38
2023-02-21T10:09:25.884Z,11.15
2023-02-21T10:10:42.867Z,11.15
2023-02-21T10:11:59.728Z,12.50
2023-02-21T10:13:11.334Z,11.68
2023-02-21T10:14:19.662Z,11.52
2023-02-21T10:16:01.074Z,12.63
2023-02-21T10:17:11.626Z,12.63
2023-02-21T10:18:31.498Z,11.80
2023-02-21T10:19:38.312Z,10.68
2023-02-21T10:21:02.525Z,10.73
2023-02-21T10:22:17.545Z,11.38
2023-02-21T10:23:24.846Z,10.82
2023-02-21T10:24:28.811Z,11.00
2023-02-21T10:25:34.103Z,11.10
2023-02-21T10:26:41.174Z,10.80
2023-02-21T10:27:43.383Z,10.77
2023-02-21T10:28:45.941Z,11.57
2023-02-21T10:29:57.040Z,11.80
2023-02-21T10:31:05.249Z,11.25
2023-02-21T10:32:08.947Z,10.65
2023-02-21T10:33:11.172Z,11.50
2023-02-21T10:34:39.383Z,11.80
2023-02-21T10:35:41.751Z,11.25
2023-02-21T10:36:43.959Z,12.15
2023-02-21T10:37:51.293Z,11.48
2023-02-21T10:38:55.902Z,11.40
2023-02-21T10:40:16.841Z,12.93
2023-02-21T10:42:31.924Z,10.90
2023-02-21T10:43:43.315Z,11.57
2023-02-21T10:44:46.493Z,10.20
2023-02-21T10:45:58.761Z,11.35
2023-02-21T10:47:03.185Z,10.95
2023-02-21T10:48:07.893Z,11.70
2023-02-21T10:49:23.678Z,11.70
2023-02-21T10:50:51.426Z,12.15
2023-02-21T10:52:05.824Z,11.15
2023-02-21T10:53:09.104Z,10.70
2023-02-21T10:54:21.073Z,11.10
2023-02-21T10:55:32.695Z,11.73
2023-02-21T10:56:38.722Z,11.82
2023-02-21T10:57:43.920Z,12.25
2023-02-21T10:59:05.559Z,11.43
2023-02-21T11:00:11.693Z,12.13
2023-02-21T11:01:21.547Z,12.63
2023-02-21T11:02:37.643Z,11.95
2023-02-21T11:03:45.250Z,12.07
2023-02-21T11:04:47.834Z,12.68
2023-02-21T11:05:51.762Z,13.23
2023-02-21T11:06:58.150Z,12.43
2023-02-21T11:08:06.809Z,12.95
2023-02-21T11:09:35.889Z,12.30
2023-02-21T11:10:42.283Z,12.25
2023-02-21T11:11:44.509Z,12.63
2023-02-21T11:13:02.574Z,12.52
2023-02-21T11:14:24.769Z,12.15
2023-02-21T11:15:26.990Z,13.00
2023-02-21T11:16:30.909Z,13.20
2023-02-21T11:17:33.683Z,13.73
2023-02-21T11:18:35.897Z,12.98
2023-02-21T11:19:48.836Z,12.13
2023-02-21T11:20:53.646Z,12.35
2023-02-21T11:21:57.676Z,11.75
2023-02-21T11:23:00.179Z,11.30
2023-02-21T11:24:05.657Z,12.48
2023-02-21T11:25:28.943Z,12.07
2023-02-21T11:26:37.634Z,12.20
2023-02-21T11:27:40.092Z,11.73
2023-02-21T11:28:45.267Z,11.88
2023-02-21T11:29:50.190Z,10.90
2023-02-21T11:31:01.572Z,11.15
2023-02-21T11:32:13.187Z,12.45
2023-02-21T11:33:21.206Z,11.38
2023-02-21T11:34:29.801Z,12.00
2023-02-21T11:35:39.622Z,11.38
2023-02-21T11:36:44.193Z,11.57
2023-02-21T11:37:51.774Z,11.10
2023-02-21T11:39:16.638Z,11.93
2023-02-21T11:40:40.950Z,9.18
2023-02-21T11:41:50.726Z,9.82
2023-02-21T11:43:18.915Z,7.43
2023-02-21T11:44:37.956Z,5.03
2023-02-21T11:45:49.025Z,5.18
2023-02-21T11:47:01.853Z,4.65
2023-02-21T11:48:11.666Z,3.78
2023-02-21T11:49:13.948Z,3.35
2023-02-21T11:50:25.561Z,3.38
2023-02-21T11:51:33.549Z,3.90
2023-02-21T11:52:50.995Z,3.28
2023-02-21T11:53:53.702Z,2.40
2023-02-21T11:54:56.306Z,2.40
2023-02-21T11:56:13.749Z,2.60
2023-02-21T11:57:35.466Z,2.10
2023-02-21T11:59:17.862Z,2.00
2023-02-21T12:00:35.020Z,1.58
2023-02-21T12:01:59.355Z,2.00
2023-02-21T12:03:01.789Z,2.17
2023-02-21T12:04:15.753Z,2.35
2023-02-21T12:05:42.911Z,2.08
2023-02-21T12:07:04.372Z,1.73
2023-02-21T12:08:40.840Z,2.25
2023-02-21T12:10:22.583Z,2.22
2023-02-21T12:12:01.272Z,1.70
2023-02-21T12:13:26.269Z,1.85
2023-02-21T12:14:46.619Z,1.48
2023-02-21T12:16:31.254Z,1.50
2023-02-21T12:17:48.234Z,1.40
2023-02-21T12:19:02.472Z,1.20
2023-02-21T12:20:16.610Z,1.40
2023-02-21T12:21:46.812Z,1.38
2023-02-21T12:23:04.101Z,1.42
2023-02-21T12:24:32.773Z,1.55
2023-02-21T12:26:11.641Z,1.10
2023-02-21T12:27:41.391Z,1.20
2023-02-21T12:29:05.314Z,1.30
2023-02-21T12:30:40.685Z,1.10
2023-02-21T12:31:51.276Z,0.90
2023-02-21T12:33:31.322Z,1.35
2023-02-21T12:35:04.552Z,0.80
2023-02-21T12:36:26.567Z,0.98
2023-02-21T12:37:44.144Z,0.70
2023-02-21T12:39:00.653Z,0.80
2023-02-21T12:40:40.105Z,0.90
2023-02-21T12:41:54.855Z,0.85
2023-02-21T12:43:26.313Z,1.35
2023-02-21T12:45:02.415Z,0.77
2023-02-21T12:46:26.434Z,1.13
2023-02-21T12:47:44.099Z,0.70
2023-02-21T12:48:54.503Z,0.70
2023-02-21T12:50:18.125Z,0.85
2023-02-21T12:51:28.462Z,0.90
2023-02-21T12:52:47.079Z,1.23
2023-02-21T12:53:57.508Z,0.70
2023-02-21T12:55:09.587Z,0.90
2023-02-21T12:56:21.081Z,0.98
2023-02-21T12:57:31.450Z,1.13
2023-02-21T12:58:44.860Z,1.45
2023-02-21T12:59:55.881Z,0.90
2023-02-21T13:01:10.733Z,0.80
2023-02-21T13:02:23.832Z,0.95
2023-02-21T13:03:51.855Z,1.10
2023-02-21T13:05:13.837Z,1.13
2023-02-21T13:06:29.001Z,0.98
2023-02-21T13:07:43.960Z,1.02
2023-02-21T13:09:07.792Z,1.05
2023-02-21T13:10:30.196Z,1.00
2023-02-21T13:11:35.355Z,1.30
2023-02-21T13:12:45.686Z,1.17
2023-02-21T13:13:47.991Z,1.20
2023-02-21T13:15:02.916Z,1.20
2023-02-21T13:16:13.018Z,1.20
2023-02-21T13:17:17.377Z,1.10
2023-02-21T13:18:22.239Z,1.20
2023-02-21T13:19:31.593Z,1.10
2023-02-21T13:20:47.936Z,1.10
2023-02-21T13:22:27.603Z,1.38
2023-02-21T13:24:28.475Z,1.15
2023-02-21T13:26:02.424Z,1.50
2023-02-21T13:27:35.569Z,1.30
2023-02-21T13:28:39.172Z,1.10
2023-02-21T13:29:42.891Z,1.40
2023-02-21T13:30:50.731Z,1.30
2023-02-21T13:32:06.587Z,1.40
2023-02-21T13:33:26.446Z,1.40
2023-02-21T13:34:35.334Z,1.30
2023-02-21T13:35:40.097Z,1.23
2023-02-21T13:36:45.130Z,1.00
2023-02-21T13:37:50.985Z,1.33
2023-02-21T13:38:59.137Z,1.48
2023-02-21T13:40:07.980Z,1.27
2023-02-21T13:41:16.886Z,1.10
2023-02-21T13:42:26.412Z,1.20
2023-02-21T13:43:35.157Z,1.23
2023-02-21T13:44:45.041Z,1.48
2023-02-21T13:45:47.320Z,1.17
2023-02-21T13:46:52.519Z,1.20
2023-02-21T13:47:57.505Z,1.02
2023-02-21T13:49:36.891Z,1.27
2023-02-21T13:50:39.994Z,1.10
2023-02-21T13:51:53.017Z,0.98
2023-02-21T13:53:17.190Z,0.80
2023-02-21T13:54:25.023Z,0.60
2023-02-21T13:55:28.731Z,0.90
2023-02-21T13:56:43.288Z,1.10
2023-02-21T13:58:09.049Z,1.00
2023-02-21T13:59:24.130Z,0.70
2023-02-21T14:00:27.156Z,1.02
2023-02-21T14:01:29.647Z,0.70
2023-02-21T14:02:34.742Z,1.05
2023-02-21T14:03:37.018Z,1.00
2023-02-21T14:04:57.587Z,1.20
2023-02-21T14:06:00.035Z,1.05
2023-02-21T14:07:02.750Z,0.90
2023-02-21T14:08:08.137Z,1.00
2023-02-21T14:09:15.313Z,0.90
2023-02-21T14:10:31.876Z,0.98
2023-02-21T14:11:38.509Z,1.88
2023-02-21T14:12:44.569Z,1.15
2023-02-21T14:13:48.101Z,1.00
2023-02-21T14:14:52.632Z,1.10
2023-02-21T14:16:09.387Z,1.00
2023-02-21T14:17:14.300Z,0.95
2023-02-21T14:18:38.952Z,1.00
2023-02-21T14:19:41.321Z,1.02
2023-02-21T14:20:47.203Z,0.75
2023-02-21T14:21:57.021Z,0.80
2023-02-21T14:22:59.955Z,0.68
2023-02-21T14:24:11.485Z,0.75
2023-02-21T14:25:19.270Z,1.15
2023-02-21T14:26:38.552Z,0.63
2023-02-21T14:27:41.407Z,1.00
2023-02-21T14:28:58.911Z,1.00
2023-02-21T14:30:01.244Z,1.00
2023-02-21T14:31:03.865Z,1.17
2023-02-21T14:32:09.359Z,0.93
2023-02-21T14:33:24.476Z,0.88
2023-02-21T14:34:48.528Z,1.10
2023-02-21T14:36:02.833Z,0.85
2023-02-21T14:37:28.261Z,0.93
2023-02-21T14:38:37.969Z,0.57
2023-02-21T14:39:44.947Z,0.60
2023-02-21T14:41:05.645Z,0.60
2023-02-21T14:42:35.742Z,0.60
2023-02-21T14:44:13.379Z,0.60
2023-02-21T14:45:24.532Z,0.50
2023-02-21T14:46:45.742Z,0.73
2023-02-21T14:47:59.811Z,0.60
2023-02-21T14:49:32.887Z,0.80
2023-02-21T14:50:45.179Z,0.63
2023-02-21T14:52:16.249Z,0.80
2023-02-21T14:55:28.044Z,0.60
2023-02-21T14:56:48.806Z,0.98
2023-02-21T14:58:29.898Z,1.05
2023-02-21T14:59:47.168Z,0.70
2023-02-21T15:01:00.457Z,0.80
2023-02-21T15:02:37.026Z,0.63
2023-02-21T15:03:50.590Z,0.70
2023-02-21T15:05:28.715Z,0.80
2023-02-21T15:06:33.148Z,0.80
2023-02-21T15:07:59.075Z,0.47
2023-02-21T15:09:12.850Z,0.70
2023-02-21T15:10:18.391Z,1.10
2023-02-21T15:11:26.710Z,0.80
2023-02-21T15:12:29.052Z,1.10
2023-02-21T15:13:34.124Z,0.82
2023-02-21T15:14:48.684Z,0.98
2023-02-21T15:16:09.537Z,0.90
2023-02-21T15:17:17.324Z,0.80
2023-02-21T15:18:28.555Z,0.85
2023-02-21T15:20:05.842Z,0.80
2023-02-21T15:21:27.190Z,0.88
2023-02-21T15:22:29.750Z,1.00
2023-02-21T15:23:32.571Z,0.60
2023-02-21T15:24:34.817Z,0.98
2023-02-21T15:25:37.605Z,1.00
2023-02-21T15:26:40.405Z,0.90
2023-02-21T15:27:50.706Z,1.38
2023-02-21T15:29:12.531Z,0.80
2023-02-21T15:30:25.394Z,1.00
2023-02-21T15:31:28.491Z,1.00
2023-02-21T15:32:31.291Z,0.90
2023-02-21T15:33:36.741Z,1.30
2023-02-21T15:34:43.283Z,1.25
2023-02-21T15:35:49.444Z,1.20
2023-02-21T15:37:02.914Z,1.10
2023-02-21T15:38:15.157Z,0.90
2023-02-21T15:39:34.991Z,0.80
2023-02-21T15:40:37.534Z,0.90
2023-02-21T15:41:48.462Z,1.10
2023-02-21T15:42:52.687Z,1.08
2023-02-21T15:44:12.306Z,0.95
2023-02-21T15:45:44.523Z,1.00